Time;durP1;ratioP1;P1;durP2;ratioP2;P2;SDS_P1;SDS_P2;PMS_P1;PMS_P2;Temp;Humidity;BMP_temperature;BMP_pressure;BME280_temperature;BME280_humidity;BME280_pressure;Samples;Min_cycle;Max_cycle;Signal;HPM_P1;HPM_P2
2022/05/22 00:00:33;;;;;;;7.28;3.05;;;;;;;16.49;55.24;100215.34;4989447;28;98516;-82
2022/05/22 00:02:58;;;;;;;5.85;2.65;;;;;;;16.44;55.41;100207.69;4990276;28;98084;-83
2022/05/22 00:05:24;;;;;;;5.20;2.35;;;;;;;16.46;55.01;100207.56;4956696;28;97658;-83
2022/05/22 00:07:50;;;;;;;5.35;2.42;;;;;;;16.48;55.17;100211.84;4990748;28;97282;-82
2022/05/22 00:10:16;;;;;;;10.48;3.25;;;;;;;16.45;54.89;100206.72;4963734;28;99709;-80
2022/05/22 00:12:42;;;;;;;7.28;2.90;;;;;;;16.45;54.96;100217.31;4969261;28;101046;-82
2022/05/22 00:15:09;;;;;;;7.07;2.75;;;;;;;16.48;54.89;100209.19;4978928;28;96827;-79
2022/05/22 00:17:35;;;;;;;4.10;2.50;;;;;;;16.47;55.07;100210.16;4954262;28;97159;-82
2022/05/22 00:20:01;;;;;;;7.22;2.65;;;;;;;16.48;54.91;100211.84;4969366;28;101068;-82
2022/05/22 00:22:26;;;;;;;8.75;2.80;;;;;;;16.49;54.60;100199.44;4972589;28;99918;-83
2022/05/22 00:24:52;;;;;;;4.43;2.60;;;;;;;16.48;54.78;100206.53;4957046;28;98154;-82
2022/05/22 00:27:18;;;;;;;5.50;2.42;;;;;;;16.49;54.56;100199.44;4991360;28;96853;-82
2022/05/22 00:29:44;;;;;;;7.03;3.47;;;;;;;16.42;54.67;100200.75;4972665;28;101619;-83
2022/05/22 00:32:09;;;;;;;6.95;2.63;;;;;;;16.30;54.95;100187.31;4970351;28;97344;-80
2022/05/22 00:34:36;;;;;;;5.20;2.53;;;;;;;16.35;55.08;100205.59;4985173;28;97145;-82
2022/05/22 00:37:02;;;;;;;6.03;2.92;;;;;;;16.31;55.02;100196.09;4960607;28;96837;-82
2022/05/22 00:39:28;;;;;;;10.68;3.08;;;;;;;16.39;55.02;100199.16;4988338;28;101280;-81
2022/05/22 00:41:55;;;;;;;9.73;3.08;;;;;;;16.35;54.94;100195.00;4990037;28;96963;-81
2022/05/22 00:44:21;;;;;;;7.50;2.90;;;;;;;16.33;55.40;100198.69;4982284;28;97123;-83
2022/05/22 00:46:48;;;;;;;7.20;2.47;;;;;;;16.39;54.93;100183.25;4970498;28;97725;-82
2022/05/22 00:49:18;;;;;;;4.43;2.70;;;;;;;16.33;55.24;100202.16;4971155;28;100746;-82
2022/05/22 00:51:46;;;;;;;7.78;2.90;;;;;;;16.30;55.59;100194.41;4989485;28;99720;-83
2022/05/22 00:54:24;;;;;;;6.20;2.70;;;;;;;16.30;55.33;100200.56;4955980;28;96804;-82
2022/05/22 00:56:59;;;;;;;5.63;2.75;;;;;;;16.27;55.41;100191.94;4983163;28;97278;-83
2022/05/22 00:59:30;;;;;;;5.97;2.72;;;;;;;16.30;55.21;100197.91;4956050;28;101074;-83
2022/05/22 01:01:58;;;;;;;6.13;2.95;;;;;;;16.24;55.33;100198.28;4950471;28;100825;-83
2022/05/22 01:04:27;;;;;;;6.25;2.50;;;;;;;16.23;55.35;100186.00;4954705;28;98234;-82
2022/05/22 01:06:54;;;;;;;6.32;2.83;;;;;;;16.14;55.46;100198.91;4975912;28;96869;-86
2022/05/22 01:09:20;;;;;;;8.57;2.70;;;;;;;16.11;55.76;100199.09;4974252;28;101096;-81
2022/05/22 01:11:47;;;;;;;8.15;3.50;;;;;;;16.06;55.87;100209.97;4971400;28;101714;-85
2022/05/22 01:14:18;;;;;;;5.70;3.20;;;;;;;16.14;55.71;100204.19;4973546;28;96893;-85
2022/05/22 01:16:46;;;;;;;5.88;3.35;;;;;;;16.03;55.84;100200.41;4976793;28;96964;-83
2022/05/22 01:19:15;;;;;;;6.78;2.60;;;;;;;15.84;56.12;100184.72;4952349;28;100435;-82
2022/05/22 01:22:10;;;;;;;8.20;2.38;;;;;;;15.95;56.29;100202.63;4959821;28;101439;-85
2022/05/22 01:24:39;;;;;;;6.10;2.55;;;;;;;15.88;56.65;100208.38;4975585;28;97650;-85
2022/05/22 01:27:07;;;;;;;4.32;2.53;;;;;;;15.80;56.40;100192.94;4957014;28;97297;-87
2022/05/22 01:30:16;;;;;;;7.10;2.63;;;;;;;15.76;56.86;100208.13;5005603;28;98254;-84
2022/05/22 01:32:45;;;;;;;7.40;2.63;;;;;;;15.72;57.01;100209.25;4989984;28;97936;-85
2022/05/22 01:35:16;;;;;;;4.45;2.38;;;;;;;15.57;57.03;100176.56;4972370;28;96972;-79
2022/05/22 01:37:42;;;;;;;7.63;2.80;;;;;;;15.62;57.11;100195.66;5011272;28;96882;-83
2022/05/22 01:40:12;;;;;;;4.82;2.38;;;;;;;15.40;57.86;100198.66;4959646;28;101796;-77
2022/05/22 01:42:39;;;;;;;8.63;2.53;;;;;;;15.47;57.35;100193.88;4975365;28;100096;-85
2022/05/22 01:45:06;;;;;;;5.25;2.80;;;;;;;15.34;57.78;100179.66;4959305;28;97528;-85
2022/05/22 01:47:33;;;;;;;5.70;2.60;;;;;;;15.47;57.90;100193.88;4975342;28;97444;-85
2022/05/22 01:49:59;;;;;;;6.10;2.60;;;;;;;15.51;57.81;100198.06;4958674;28;101400;-85
2022/05/22 01:52:24;;;;;;;3.20;2.40;;;;;;;15.44;58.17;100194.03;4958200;28;100774;-84
2022/05/22 01:54:51;;;;;;;5.75;2.88;;;;;;;15.43;58.15;100189.69;4991405;28;96809;-85
2022/05/22 01:57:17;;;;;;;4.68;2.60;;;;;;;15.42;58.17;100195.94;4975290;28;97301;-85
2022/05/22 01:59:42;;;;;;;4.65;2.80;;;;;;;15.35;58.36;100191.91;4974772;28;99911;-83
2022/05/22 02:02:19;;;;;;;5.93;2.95;;;;;;;15.27;58.28;100192.38;4990737;28;101981;-82
2022/05/22 02:04:44;;;;;;;6.97;2.75;;;;;;;15.20;58.39;100172.47;4958789;28;96849;-83
2022/05/22 02:10:10;;;;;;;8.80;2.83;;;;;;;15.38;58.23;100191.75;4946913;28;100557;-85
2022/05/22 02:12:36;;;;;;;9.65;3.60;;;;;;;15.30;57.93;100162.22;4987751;28;98782;-83
2022/05/22 02:15:05;;;;;;;7.18;3.25;;;;;;;15.38;58.54;100197.03;4972278;28;97329;-83
2022/05/22 02:17:32;;;;;;;8.90;3.70;;;;;;;15.35;58.47;100190.13;4966425;28;97469;-83
2022/05/22 02:19:58;;;;;;;5.60;3.47;;;;;;;15.38;58.19;100187.31;4990261;28;101005;-83
2022/05/22 02:22:41;;;;;;;8.68;3.25;;;;;;;15.32;58.58;100190.28;4960542;28;100583;-83
2022/05/22 02:25:09;;;;;;;6.25;3.05;;;;;;;15.35;58.41;100190.13;4991848;28;97123;-83
2022/05/22 02:27:35;;;;;;;7.35;3.08;;;;;;;15.44;58.35;100193.19;4957810;28;96880;-82
2022/05/22 02:30:02;;;;;;;11.45;3.65;;;;;;;15.31;58.58;100183.31;4957979;28;101017;-82
2022/05/22 02:32:29;;;;;;;6.03;2.78;;;;;;;15.30;58.38;100193.97;4991043;28;98003;-82
2022/05/22 02:34:55;;;;;;;4.65;2.40;;;;;;;15.34;58.35;100191.06;4955710;28;97277;-83
2022/05/22 02:37:21;;;;;;;6.80;2.95;;;;;;;15.28;58.56;100183.47;4973423;28;96843;-82
2022/05/22 02:39:46;;;;;;;5.15;2.60;;;;;;;15.32;58.44;100189.44;4995766;28;101209;-83
2022/05/22 02:42:42;;;;;;;6.40;2.40;;;;;;;15.21;58.80;100181.25;4989431;28;98921;-83
2022/05/22 02:45:22;;;;;;;5.70;2.45;;;;;;;15.12;58.78;100174.69;4959825;28;97325;-83
2022/05/22 02:47:48;;;;;;;6.40;2.67;;;;;;;15.15;58.94;100187.72;4958829;28;97331;-82
2022/05/22 02:50:16;;;;;;;8.02;2.35;;;;;;;15.23;58.59;100193.47;4973858;28;98126;-77
2022/05/22 02:52:41;;;;;;;4.40;2.42;;;;;;;15.18;58.97;100184.91;4973491;28;100414;-83
2022/05/22 02:55:08;;;;;;;5.45;2.45;;;;;;;14.95;59.37;100159.75;4974739;28;97399;-84
2022/05/22 02:57:34;;;;;;;6.70;2.67;;;;;;;15.04;59.50;100180.41;4958025;28;97423;-82
2022/05/22 03:00:08;;;;;;;7.40;2.95;;;;;;;15.16;59.13;100182.38;4977118;28;102024;-84
2022/05/22 03:02:35;;;;;;;7.70;2.70;;;;;;;15.13;59.32;100184.34;4973725;28;100159;-83
2022/05/22 03:05:01;;;;;;;5.28;2.38;;;;;;;15.03;59.49;100165.47;4958305;28;96927;-80
2022/05/22 03:07:27;;;;;;;6.47;2.78;;;;;;;15.18;59.21;100182.28;4958102;28;97333;-83
2022/05/22 03:09:55;;;;;;;7.20;2.63;;;;;;;15.24;59.46;100194.31;4973962;28;101271;-82
2022/05/22 03:12:23;;;;;;;4.95;2.53;;;;;;;15.17;59.75;100192.00;4973989;28;100515;-83
2022/05/22 03:14:55;;;;;;;11.40;3.35;;;;;;;15.16;59.57;100189.47;4970959;28;96798;-83
2022/05/22 03:17:21;;;;;;;6.35;2.75;;;;;;;15.09;59.78;100194.22;4954668;28;97136;-81
2022/05/22 03:19:55;;;;;;;8.23;2.70;;;;;;;15.13;59.56;100195.75;4959517;28;101940;-81
2022/05/22 03:22:21;;;;;;;5.88;2.80;;;;;;;15.08;59.51;100175.81;4970940;28;97911;-83
2022/05/22 03:24:46;;;;;;;10.88;3.00;;;;;;;15.15;59.21;100193.91;4973996;28;97374;-83
2022/05/22 03:27:14;;;;;;;7.05;2.63;;;;;;;15.19;59.30;100193.72;4984326;28;97221;-84
2022/05/22 03:29:42;;;;;;;7.60;2.42;;;;;;;15.19;58.89;100183.16;5005719;28;100681;-82
2022/05/22 03:32:09;;;;;;;4.93;2.45;;;;;;;15.32;58.55;100181.50;4974165;28;99600;-84
2022/05/22 03:34:35;;;;;;;5.88;2.15;;;;;;;15.25;58.56;100183.66;4956445;28;97209;-82
2022/05/22 03:37:02;;;;;;;5.88;2.55;;;;;;;15.28;58.17;100186.13;4972463;28;96972;-83
2022/05/22 03:39:28;;;;;;;8.13;2.83;;;;;;;15.33;58.25;100189.38;4989447;28;101208;-82
2022/05/22 03:41:54;;;;;;;4.38;2.28;;;;;;;15.28;58.41;100188.78;4970171;28;101147;-82
2022/05/22 03:44:22;;;;;;;8.57;2.35;;;;;;;15.35;57.92;100184.00;4957345;28;96923;-84
2022/05/22 03:46:48;;;;;;;5.10;2.17;;;;;;;15.40;57.69;100192.53;4970779;28;96827;-85
2022/05/22 03:49:17;;;;;;;6.57;2.50;;;;;;;15.24;57.83;100163.44;4972271;28;101273;-77
2022/05/22 03:51:45;;;;;;;5.63;2.30;;;;;;;15.42;57.35;100193.31;4958538;28;99570;-83
2022/05/22 03:54:14;;;;;;;6.18;1.80;;;;;;;15.44;57.40;100195.84;4959938;28;97297;-81
2022/05/22 03:56:43;;;;;;;4.85;2.50;;;;;;;15.49;56.84;100197.28;4975197;28;97223;-81
2022/05/22 03:59:18;;;;;;;9.43;2.85;;;;;;;15.45;56.92;100200.22;4958896;28;101563;-77
2022/05/22 04:01:43;;;;;;;5.90;2.13;;;;;;;15.35;56.80;100171.59;4973225;28;101332;-82
2022/05/22 04:04:09;;;;;;;8.52;1.85;;;;;;;15.46;56.66;100194.81;4956956;28;96909;-83
2022/05/22 04:06:34;;;;;;;4.95;2.05;;;;;;;15.52;56.38;100188.34;4989535;28;97173;-83
2022/05/22 04:09:00;;;;;;;8.18;2.20;;;;;;;15.62;56.27;100193.03;4954089;28;101147;-81
2022/05/22 04:11:46;;;;;;;7.47;2.03;;;;;;;15.45;56.62;100166.69;4973966;28;97194;-83
2022/05/22 04:14:18;;;;;;;6.55;1.85;;;;;;;15.62;56.14;100179.78;4968581;28;97350;-82
2022/05/22 04:16:49;;;;;;;4.90;1.80;;;;;;;15.52;56.31;100157.44;4975510;28;96981;-83
2022/05/22 04:19:15;;;;;;;5.90;1.80;;;;;;;15.89;55.58;100188.91;4989912;28;97302;-82
2022/05/22 04:21:42;;;;;;;6.88;1.90;;;;;;;15.84;55.62;100160.06;4956662;28;102428;-83
2022/05/22 04:26:55;;;;;;;5.72;1.80;;;;;;;16.02;55.74;100172.19;4990325;28;97202;-85
2022/05/22 04:29:22;;;;;;;10.75;2.42;;;;;;;16.06;55.54;100176.38;4972550;28;101210;-83
2022/05/22 04:31:48;;;;;;;7.43;2.42;;;;;;;16.10;55.50;100176.22;4989734;28;97876;-85
2022/05/22 04:34:19;;;;;;;7.72;2.55;;;;;;;16.20;55.36;100172.06;4958010;28;97012;-81
2022/05/22 04:36:44;;;;;;;5.65;3.25;;;;;;;16.19;55.17;100154.47;4973804;28;97428;-82
2022/05/22 04:39:27;;;;;;;7.30;2.60;;;;;;;16.37;55.07;100185.13;4988757;28;98063;-81
2022/05/22 04:44:44;;;;;;;7.75;2.22;;;;;;;16.86;54.06;100181.31;4978492;28;97360;-85
2022/05/22 04:47:29;;;;;;;10.38;2.50;;;;;;;17.10;53.35;100165.66;4975171;28;97753;-83
2022/05/22 04:50:14;;;;;;;13.00;2.58;;;;;;;17.11;53.46;100180.66;4992985;28;97193;-81
2022/05/22 04:53:09;;;;;;;19.00;3.08;;;;;;;17.38;52.90;100175.38;4987565;28;97341;-83
2022/05/22 04:55:51;;;;;;;12.32;3.13;;;;;;;17.62;51.85;100170.25;4962830;28;97121;-82
2022/05/22 04:58:18;;;;;;;10.38;3.10;;;;;;;17.95;51.41;100171.66;4973980;28;96937;-81
2022/05/22 05:00:44;;;;;;;6.07;2.80;;;;;;;18.37;50.86;100175.88;4974227;28;101715;-83
2022/05/22 05:03:13;;;;;;;7.10;2.17;;;;;;;18.80;49.46;100170.25;4960612;28;101754;-82
2022/05/22 05:05:39;;;;;;;7.28;2.03;;;;;;;19.04;49.01;100170.31;4975605;28;96748;-83
2022/05/22 05:08:04;;;;;;;6.18;2.00;;;;;;;19.37;48.10;100166.16;4978480;28;97005;-83
2022/05/22 05:11:02;;;;;;;5.75;2.10;;;;;;;19.60;47.25;100162.66;4979562;28;98930;-84
2022/05/22 05:13:43;;;;;;;6.90;2.20;;;;;;;19.68;46.67;100152.31;4962774;28;101164;-81
2022/05/22 05:16:12;;;;;;;7.40;2.17;;;;;;;19.99;46.16;100162.50;4974763;28;96949;-83
2022/05/22 05:18:45;;;;;;;6.15;2.20;;;;;;;20.42;45.59;100176.06;4970141;28;98039;-82
2022/05/22 05:21:13;;;;;;;3.67;1.63;;;;;;;20.75;44.68;100177.09;4958858;28;101393;-83
2022/05/22 05:23:40;;;;;;;5.85;1.98;;;;;;;20.98;44.02;100170.78;4991553;28;98325;-83
2022/05/22 05:26:13;;;;;;;4.65;2.28;;;;;;;21.22;43.29;100169.75;4992289;28;96830;-82
2022/05/22 05:28:39;;;;;;;5.65;1.95;;;;;;;21.16;43.20;100165.78;4967641;28;97635;-83
2022/05/22 05:31:07;;;;;;;8.48;1.88;;;;;;;21.22;42.90;100159.09;5007590;28;101565;-83
2022/05/22 05:33:34;;;;;;;5.80;1.55;;;;;;;21.84;42.15;100168.25;4974998;28;101217;-82
2022/05/22 05:36:10;;;;;;;5.95;2.50;;;;;;;22.11;41.52;100162.44;4973949;28;96902;-82
2022/05/22 05:38:55;;;;;;;5.07;1.80;;;;;;;22.11;40.44;100163.28;4988479;28;97107;-84
2022/05/22 05:41:35;;;;;;;5.30;1.83;;;;;;;22.17;40.08;100159.28;4976250;28;100451;-82
2022/05/22 05:44:08;;;;;;;6.60;2.10;;;;;;;22.52;39.50;100163.44;4973664;28;99330;-82
2022/05/22 05:46:44;;;;;;;4.65;1.60;;;;;;;23.09;38.45;100174.53;4976441;28;96830;-83
2022/05/22 05:49:12;;;;;;;4.75;1.73;;;;;;;23.46;38.10;100164.88;4959867;28;97221;-83
2022/05/22 05:51:40;;;;;;;4.72;1.45;;;;;;;23.71;37.81;100162.69;4974275;28;99716;-82
2022/05/22 05:54:06;;;;;;;6.97;1.60;;;;;;;24.17;36.89;100166.47;4975183;28;101307;-82
2022/05/22 05:56:58;;;;;;;6.75;2.10;;;;;;;25.00;35.15;100164.81;4979874;28;96914;-82
2022/05/22 05:59:28;;;;;;;5.33;2.20;;;;;;;25.22;34.78;100176.19;4977249;28;96985;-83
2022/05/22 06:02:03;;;;;;;8.77;1.58;;;;;;;24.63;35.22;100163.00;4985513;28;101812;-83
2022/05/22 06:04:28;;;;;;;5.68;1.92;;;;;;;26.16;33.81;100170.41;4958057;28;100554;-82
2022/05/22 06:06:54;;;;;;;2.80;1.63;;;;;;;25.03;34.51;100164.53;4982186;28;96697;-83
2022/05/22 06:09:20;;;;;;;5.00;1.50;;;;;;;26.45;32.88;100169.28;4975058;28;97341;-82
2022/05/22 06:12:04;;;;;;;4.47;1.55;;;;;;;27.68;30.92;100171.47;4990328;28;97325;-80
2022/05/22 06:14:40;;;;;;;4.47;1.52;;;;;;;26.83;31.99;100155.38;4975004;28;101411;-82
2022/05/22 06:17:05;;;;;;;7.32;1.77;;;;;;;25.38;33.87;100179.06;4972181;28;96861;-84
2022/05/22 06:19:54;;;;;;;2.40;1.23;;;;;;;24.70;34.34;100163.28;4959009;28;96919;-82
2022/05/22 06:22:23;;;;;;;4.22;1.40;;;;;;;24.84;34.10;100180.72;4960885;28;101445;-78
2022/05/22 06:24:52;;;;;;;6.00;1.77;;;;;;;25.68;33.36;100179.69;4979858;28;99397;-82
2022/05/22 06:27:30;;;;;;;6.35;1.67;;;;;;;28.03;30.35;100172.19;4973584;28;96844;-82
2022/05/22 06:30:13;;;;;;;5.38;1.65;;;;;;;29.09;28.73;100174.72;4979609;28;97260;-83
2022/05/22 06:33:17;;;;;;;4.50;1.42;;;;;;;27.48;30.37;100183.56;4978944;28;97901;-82
2022/05/22 06:36:18;;;;;;;3.92;1.52;;;;;;;29.84;27.88;100162.44;4967676;28;97932;-83
2022/05/22 06:42:05;;;;;;;5.43;1.60;;;;;;;31.74;25.56;100163.69;4966717;28;98416;-86
2022/05/22 06:44:43;;;;;;;5.97;1.50;;;;;;;30.86;26.25;100153.88;4997484;27;100230;-85
2022/05/22 06:47:28;;;;;;;1.92;1.17;;;;;;;28.67;28.49;100170.44;4975834;28;97090;-83
2022/05/22 06:50:25;;;;;;;3.63;1.50;;;;;;;28.82;28.06;100162.47;4952878;28;97599;-80
2022/05/22 06:53:17;;;;;;;3.22;1.88;;;;;;;30.66;26.73;100164.41;4980526;28;96809;-84
2022/05/22 06:55:55;;;;;;;6.70;1.55;;;;;;;28.46;29.25;100167.47;4969608;28;98007;-82
2022/05/22 06:58:49;;;;;;;3.25;1.25;;;;;;;27.93;29.57;100185.03;4971918;28;97713;-86
2022/05/22 07:01:33;;;;;;;5.35;1.75;;;;;;;26.88;30.54;100176.44;4972661;28;97419;-84
2022/05/22 07:04:29;;;;;;;5.80;1.60;;;;;;;26.63;30.89;100162.84;4973136;28;98446;-83
2022/05/22 07:06:57;;;;;;;3.80;1.45;;;;;;;27.90;29.07;100185.38;4970815;28;98066;-84
2022/05/22 07:09:42;;;;;;;4.07;1.38;;;;;;;25.59;31.57;100164.50;4986030;28;97088;-84
2022/05/22 07:12:30;;;;;;;5.72;1.27;;;;;;;28.50;28.50;100179.59;4970130;28;97228;-81
2022/05/22 07:15:31;;;;;;;;;;;;;;;26.14;31.04;100177.78;4968797;28;96997;-84
2022/05/22 07:18:15;;;;;;;6.47;1.40;;;;;;;26.74;30.72;100174.34;5011757;27;97275;-83
2022/05/22 07:21:11;;;;;;;2.25;1.08;;;;;;;28.58;28.60;100159.84;4976449;28;99918;-83
2022/05/22 07:23:59;;;;;;;4.50;1.27;;;;;;;29.50;27.48;100176.38;4972880;28;96906;-84
2022/05/22 07:26:36;;;;;;;3.00;1.15;;;;;;;28.39;28.06;100159.19;4988381;28;97238;-82
2022/05/22 07:29:32;;;;;;;2.75;1.20;;;;;;;28.20;28.72;100151.47;4957701;28;101818;-85
2022/05/22 07:32:16;;;;;;;3.63;1.70;;;;;;;26.86;30.08;100181.97;4966654;28;97072;-83
2022/05/22 07:35:02;;;;;;;4.38;1.60;;;;;;;27.16;29.84;100168.16;4983049;28;97730;-84
2022/05/22 07:37:49;;;;;;;3.42;1.38;;;;;;;25.97;31.19;100163.34;4981905;28;96820;-84
2022/05/22 07:40:37;;;;;;;2.53;1.17;;;;;;;24.53;33.34;100172.91;4980056;28;101418;-84
2022/05/22 07:43:27;;;;;;;4.32;1.60;;;;;;;26.03;31.42;100157.34;4993069;28;97789;-83
2022/05/22 07:46:08;;;;;;;3.15;1.25;;;;;;;26.08;31.24;100149.66;4977640;28;97648;-84
2022/05/22 07:48:51;;;;;;;4.10;1.33;;;;;;;24.69;32.93;100144.63;4961335;28;96869;-84
2022/05/22 07:51:26;;;;;;;3.75;1.23;;;;;;;24.39;33.31;100144.69;4990679;28;98192;-82
2022/05/22 07:53:59;;;;;;;4.50;1.45;;;;;;;24.34;33.37;100149.63;4990886;28;97430;-85
2022/05/22 07:56:47;;;;;;;5.28;1.55;;;;;;;24.25;33.63;100130.88;4984266;28;97354;-85
2022/05/22 07:59:28;;;;;;;4.07;1.50;;;;;;;23.80;34.31;100135.06;4975707;28;96772;-83
2022/05/22 08:01:54;;;;;;;4.20;1.38;;;;;;;23.73;34.76;100140.13;4989807;28;97892;-81
2022/05/22 08:04:36;;;;;;;5.43;1.55;;;;;;;23.24;35.02;100117.78;4984541;28;97882;-82
2022/05/22 08:07:17;;;;;;;3.47;1.10;;;;;;;23.42;35.10;100134.03;4973640;28;97801;-82
2022/05/22 08:09:51;;;;;;;3.47;1.48;;;;;;;23.73;35.03;100133.91;4973731;28;97342;-84
2022/05/22 08:12:17;;;;;;;3.42;1.00;;;;;;;26.30;31.54;100123.28;4971506;28;100345;-83
2022/05/22 08:14:44;;;;;;;4.03;1.25;;;;;;;25.84;32.17;100109.16;4973442;28;101176;-85
2022/05/22 08:17:11;;;;;;;3.40;0.93;;;;;;;26.19;31.79;100117.13;4999252;28;97378;-89
2022/05/22 08:19:37;;;;;;;3.15;1.05;;;;;;;26.55;30.87;100119.72;4960623;28;96814;-84
2022/05/22 08:22:17;;;;;;;2.00;0.85;;;;;;;25.60;32.12;100113.28;4990834;28;98010;-85
2022/05/22 08:25:02;;;;;;;2.20;1.08;;;;;;;24.90;32.59;100121.09;4976973;28;96816;-87
2022/05/22 08:27:29;;;;;;;2.83;1.40;;;;;;;24.55;32.75;100108.38;4977920;28;97623;-84
2022/05/22 08:29:55;;;;;;;4.13;1.30;;;;;;;24.01;33.65;100108.09;4977059;28;96922;-80
2022/05/22 08:32:22;;;;;;;5.53;1.23;;;;;;;24.00;33.74;100121.59;4961182;28;101679;-86
2022/05/22 08:34:50;;;;;;;2.47;0.90;;;;;;;23.62;34.18;100102.75;4986404;28;99904;-92
2022/05/22 08:37:16;;;;;;;3.75;1.48;;;;;;;23.30;35.00;100124.44;4993665;28;96848;-89
2022/05/22 08:39:41;;;;;;;5.30;1.20;;;;;;;23.08;35.17;100125.50;4985663;28;97687;-90
2022/05/22 08:42:09;;;;;;;3.22;0.90;;;;;;;22.53;36.15;100133.00;4959337;28;101226;-84
2022/05/22 08:44:36;;;;;;;4.22;1.20;;;;;;;22.30;36.63;100125.16;4980383;28;97476;-83
2022/05/22 08:47:12;;;;;;;2.97;1.23;;;;;;;22.19;36.83;100129.72;4982628;28;96791;-83
2022/05/22 08:50:00;;;;;;;2.78;1.42;;;;;;;22.15;36.98;100135.31;4983286;28;97071;-82
2022/05/22 08:52:51;;;;;;;1.95;1.10;;;;;;;24.01;34.51;100126.00;4982352;28;101056;-87
2022/05/22 08:55:16;;;;;;;;;;;;;;;23.62;35.16;100134.88;4984693;28;97881;-87
2022/05/22 09:00:31;;;;;;;2.85;1.02;;;;;;;23.83;35.46;100128.56;4981592;28;96951;-83
2022/05/22 09:03:10;;;;;;;2.38;1.17;;;;;;;23.88;34.86;100128.97;4969801;28;97340;-85
2022/05/22 09:05:37;;;;;;;4.22;1.25;;;;;;;25.80;32.55;100123.84;4960933;28;98980;-84
2022/05/22 09:08:24;;;;;;;3.78;1.05;;;;;;;25.76;32.45;100117.94;4958523;28;98145;-85
2022/05/22 09:11:14;;;;;;;2.05;1.00;;;;;;;26.09;32.49;100115.53;4988692;28;96841;-83
2022/05/22 09:13:50;;;;;;;3.03;1.20;;;;;;;26.07;32.07;100096.88;4980042;28;97435;-84
2022/05/22 09:16:24;;;;;;;2.60;1.00;;;;;;;25.93;31.33;100094.78;4989091;28;96969;-82
2022/05/22 09:18:58;;;;;;;2.65;1.30;;;;;;;25.48;32.69;100114.50;5011985;27;96804;-82
2022/05/22 09:21:23;;;;;;;2.55;1.10;;;;;;;24.66;32.78;100124.28;4948741;28;97217;-83
2022/05/22 09:23:56;;;;;;;2.38;0.82;;;;;;;23.99;34.09;100120.78;4984332;28;98204;-81
2022/05/22 09:26:50;;;;;;;3.10;1.10;;;;;;;24.01;34.66;100118.81;4981918;28;101475;-83
2022/05/22 09:29:22;;;;;;;2.78;1.25;;;;;;;24.17;34.00;100113.69;4978958;28;96997;-82
2022/05/22 09:32:09;;;;;;;2.97;0.98;;;;;;;24.03;34.48;100119.50;4979759;28;96920;-82
2022/05/22 09:35:12;;;;;;;3.80;1.10;;;;;;;23.59;34.78;100111.06;4985246;28;97717;-81
2022/05/22 09:37:47;;;;;;;1.67;0.77;;;;;;;23.11;35.03;100093.09;4982016;28;101061;-82
2022/05/22 09:40:17;;;;;;;2.72;0.75;;;;;;;24.68;33.21;100116.94;4960424;28;97366;-84
2022/05/22 09:42:52;;;;;;;2.10;0.93;;;;;;;25.49;32.45;100108.97;5010400;27;98847;-87
2022/05/22 09:45:21;;;;;;;1.55;0.98;;;;;;;24.77;32.50;100102.63;4977781;28;97568;-87
2022/05/22 09:48:07;;;;;;;2.83;1.10;;;;;;;24.02;33.88;100100.88;4965329;28;97559;-83
2022/05/22 09:50:47;;;;;;;3.10;0.80;;;;;;;23.75;34.40;100105.16;4975380;28;96817;-88
2022/05/22 09:53:27;;;;;;;2.35;1.08;;;;;;;23.57;34.42;100113.03;4973102;28;97353;-86
2022/05/22 09:56:02;;;;;;;1.15;1.02;;;;;;;23.26;35.05;100090.88;4988680;28;97631;-84
2022/05/22 09:58:51;;;;;;;3.45;1.00;;;;;;;22.97;35.31;100102.38;4973901;28;97762;-83
2022/05/22 10:01:29;;;;;;;1.65;0.90;;;;;;;22.59;35.93;100119.09;4971280;28;97499;-85
2022/05/22 10:04:06;;;;;;;2.38;1.23;;;;;;;22.59;36.27;100114.59;4979440;28;97846;-85
2022/05/22 10:06:42;;;;;;;2.22;1.20;;;;;;;22.94;35.64;100118.66;4976520;28;100769;-79
2022/05/22 10:09:41;;;;;;;2.20;1.20;;;;;;;23.23;34.96;100117.91;4986277;28;97883;-78
2022/05/22 10:12:49;;;;;;;2.35;0.90;;;;;;;23.21;34.77;100110.03;4985903;28;97293;-78
2022/05/22 10:15:20;;;;;;;2.03;0.80;;;;;;;23.05;35.44;100107.88;4974661;28;96939;-82
2022/05/22 10:18:08;;;;;;;2.58;0.88;;;;;;;22.90;35.64;100119.09;4972929;28;101063;-87
2022/05/22 10:20:47;;;;;;;2.47;0.85;;;;;;;22.80;36.53;100105.66;4967754;28;101462;-79
2022/05/22 10:23:40;;;;;;;4.97;0.80;;;;;;;22.55;36.08;100125.72;4993325;28;97103;-84
2022/05/22 10:26:16;;;;;;;2.85;1.05;;;;;;;22.65;37.22;100121.25;4974069;28;97922;-85
2022/05/22 10:28:53;;;;;;;2.92;1.25;;;;;;;23.27;36.97;100108.63;4990184;28;100035;-90
2022/05/22 10:31:22;;;;;;;2.67;1.05;;;;;;;24.11;36.25;100114.25;4970362;28;101837;-92
2022/05/22 10:33:57;;;;;;;3.30;0.80;;;;;;;24.62;33.98;100122.91;4982443;28;96764;-83
2022/05/22 10:36:27;;;;;;;1.15;0.70;;;;;;;24.55;34.01;100124.47;4970141;28;97220;-79
2022/05/22 10:38:57;;;;;;;2.20;0.70;;;;;;;24.38;33.67;100118.88;4971763;28;101377;-82
2022/05/22 10:44:17;;;;;;;2.05;0.60;;;;;;;23.56;34.38;100130.09;4972296;28;97143;-79
2022/05/22 10:46:49;;;;;;;1.95;1.00;;;;;;;23.12;35.28;100142.13;4988309;28;96959;-79
2022/05/22 10:49:15;;;;;;;3.75;0.90;;;;;;;22.89;35.89;100136.09;4978827;28;101686;-78
2022/05/22 10:51:41;;;;;;;4.18;1.30;;;;;;;22.56;36.70;100127.41;4981090;28;98001;-76
2022/05/22 10:54:06;;;;;;;4.13;1.05;;;;;;;22.47;37.15;100149.59;4972451;28;97370;-82
2022/05/22 10:56:35;;;;;;;1.67;0.88;;;;;;;22.45;37.46;100139.03;4995940;28;97706;-88
2022/05/22 10:59:07;;;;;;;3.80;1.00;;;;;;;23.24;36.58;100141.03;4987248;28;97485;-81
2022/05/22 11:01:36;;;;;;;5.93;1.38;;;;;;;23.19;36.16;100151.31;4974905;28;100377;-79
2022/05/22 11:04:14;;;;;;;4.22;1.33;;;;;;;23.14;36.55;100151.72;4988798;28;97230;-81
2022/05/22 11:06:52;;;;;;;4.80;1.48;;;;;;;23.24;36.33;100131.19;4987815;28;96767;-81
2022/05/22 11:09:24;;;;;;;5.80;1.48;;;;;;;23.21;36.15;100104.69;4991239;28;97568;-79
2022/05/22 11:11:50;;;;;;;2.97;1.33;;;;;;;22.88;36.56;100097.81;5003016;28;97974;-77
2022/05/22 11:14:21;;;;;;;4.15;0.90;;;;;;;22.55;36.99;100107.00;4955421;28;96961;-78
2022/05/22 11:16:47;;;;;;;;;;;;;;;22.36;37.44;100129.13;4967378;28;96851;-78
2022/05/22 11:19:24;;;;;;;2.58;1.10;;;;;;;22.13;37.50;100105.19;4968397;28;101518;-79
2022/05/22 11:21:52;;;;;;;3.97;0.93;;;;;;;22.38;37.51;100127.19;4987698;28;97539;-78
2022/05/22 11:24:26;;;;;;;3.78;1.00;;;;;;;22.44;37.16;100123.97;4970868;28;97093;-78
2022/05/22 11:27:03;;;;;;;3.22;1.02;;;;;;;22.65;37.29;100115.03;4952014;28;97075;-78
2022/05/22 11:29:33;;;;;;;2.85;1.23;;;;;;;23.20;36.74;100116.38;4987629;28;103071;-78
2022/05/22 11:32:04;;;;;;;1.85;0.85;;;;;;;23.70;36.38;100100.19;4971312;28;98061;-78
2022/05/22 11:34:49;;;;;;;1.58;1.00;;;;;;;24.04;34.69;100104.28;4992725;28;97151;-78
2022/05/22 11:37:22;;;;;;;2.70;0.85;;;;;;;23.90;34.09;100103.72;4989558;28;97202;-78
2022/05/22 11:40:45;;;;;;;2.72;1.42;;;;;;;23.67;34.26;100107.66;4953876;28;101542;-78
2022/05/22 11:43:31;;;;;;;2.83;0.95;;;;;;;23.52;34.60;100103.72;4966985;28;101370;-78
2022/05/22 11:46:22;;;;;;;3.45;0.88;;;;;;;23.58;34.98;100095.94;4966005;28;98136;-79
2022/05/22 11:49:00;;;;;;;3.25;0.90;;;;;;;23.92;35.14;100101.75;4981732;28;96693;-78
2022/05/22 11:51:40;;;;;;;3.55;1.00;;;;;;;23.87;35.02;100098.63;4986656;28;101834;-78
2022/05/22 11:54:15;;;;;;;7.53;1.20;;;;;;;23.73;35.01;100102.59;4987639;28;100666;-78
2022/05/22 11:57:10;;;;;;;1.65;0.70;;;;;;;23.43;34.78;100100.03;4987194;28;96804;-78
2022/05/22 11:59:37;;;;;;;1.50;0.93;;;;;;;23.28;35.42;100100.44;4982823;28;97623;-79
2022/05/22 12:02:08;;;;;;;9.63;1.50;;;;;;;23.56;35.63;100092.59;4987143;28;100432;-78
2022/05/22 12:04:47;;;;;;;6.07;0.82;;;;;;;23.45;35.43;100088.22;4986658;28;101276;-79
2022/05/22 12:07:31;;;;;;;2.67;0.93;;;;;;;23.49;35.02;100086.09;4994724;28;96844;-78
2022/05/22 12:10:16;;;;;;;3.05;1.20;;;;;;;23.36;34.46;100088.19;4974705;28;96862;-78
2022/05/22 12:12:49;;;;;;;5.65;0.82;;;;;;;23.07;34.93;100046.19;4978544;28;101079;-78